createdAt,value
2022-09-12T00:00:10.036Z,13.60
2022-09-12T00:02:44.390Z,13.50
2022-09-12T00:05:14.430Z,13.50
2022-09-12T00:07:43.149Z,13.40
2022-09-12T00:10:11.909Z,13.40
2022-09-12T00:12:40.658Z,13.30
2022-09-12T00:15:11.077Z,13.30
2022-09-12T00:17:40.431Z,13.20
2022-09-12T00:20:11.590Z,13.20
2022-09-12T00:22:41.542Z,11.70
2022-09-12T00:25:10.320Z,13.10
2022-09-12T00:27:38.938Z,13.10
2022-09-12T00:30:08.536Z,13.00
2022-09-12T00:32:36.978Z,13.00
2022-09-12T00:35:07.337Z,13.00
2022-09-12T00:37:36.821Z,13.00
2022-09-12T00:40:08.012Z,12.90
2022-09-12T00:42:36.659Z,12.90
2022-09-12T00:45:05.814Z,12.90
2022-09-12T00:47:37.893Z,12.80
2022-09-12T00:50:09.697Z,12.80
2022-09-12T00:52:43.337Z,12.80
2022-09-12T00:55:18.203Z,12.80
2022-09-12T00:57:51.718Z,12.80
2022-09-12T01:00:24.119Z,12.80
2022-09-12T01:02:56.653Z,12.70
2022-09-12T01:05:26.486Z,12.70
2022-09-12T01:07:56.277Z,12.60
2022-09-12T01:10:26.911Z,12.60
2022-09-12T01:13:00.463Z,12.60
2022-09-12T01:15:29.383Z,12.60
2022-09-12T01:18:10.233Z,12.50
2022-09-12T01:20:49.509Z,12.50
2022-09-12T01:23:42.399Z,12.50
2022-09-12T01:26:32.199Z,12.50
2022-09-12T01:29:19.456Z,12.50
2022-09-12T01:31:58.041Z,12.40
2022-09-12T01:34:30.311Z,12.40
2022-09-12T01:37:08.147Z,12.40
2022-09-12T01:39:45.053Z,12.40
2022-09-12T01:42:22.499Z,12.40
2022-09-12T01:45:00.754Z,12.30
2022-09-12T01:47:40.794Z,12.30
2022-09-12T01:50:19.538Z,12.20
2022-09-12T01:52:53.911Z,12.20
2022-09-12T01:55:27.130Z,12.20
2022-09-12T01:58:02.163Z,12.20
2022-09-12T02:00:33.484Z,12.20
2022-09-12T02:03:09.714Z,12.10
2022-09-12T02:05:42.244Z,12.10
2022-09-12T02:08:14.633Z,12.10
2022-09-12T02:10:48.065Z,12.10
2022-09-12T02:13:25.265Z,12.10
2022-09-12T02:15:59.865Z,12.10
2022-09-12T02:18:34.624Z,12.00
2022-09-12T02:21:07.720Z,12.00
2022-09-12T02:23:42.287Z,12.00
2022-09-12T02:26:17.842Z,12.00
2022-09-12T02:28:47.027Z,12.00
2022-09-12T02:31:24.825Z,12.00
2022-09-12T02:34:09.636Z,12.00
2022-09-12T02:36:47.873Z,12.00
2022-09-12T02:39:20.328Z,12.00
2022-09-12T02:41:52.392Z,12.00
2022-09-12T02:44:22.447Z,12.00
2022-09-12T02:46:56.445Z,11.90
2022-09-12T02:49:27.008Z,11.90
2022-09-12T02:51:55.904Z,11.90
2022-09-12T02:54:26.103Z,11.90
2022-09-12T02:56:54.692Z,12.00
2022-09-12T02:59:26.010Z,11.90
2022-09-12T03:02:18.001Z,11.90
2022-09-12T03:05:11.694Z,11.80
2022-09-12T03:08:00.544Z,11.80
2022-09-12T03:10:38.721Z,11.80
2022-09-12T03:13:19.004Z,11.80
2022-09-12T03:15:58.401Z,11.80
2022-09-12T03:18:40.295Z,11.70
2022-09-12T03:21:17.633Z,11.70
2022-09-12T03:24:02.115Z,11.70
2022-09-12T03:26:37.651Z,11.70
2022-09-12T03:29:09.178Z,11.60
2022-09-12T03:31:49.362Z,11.60
2022-09-12T03:34:17.799Z,11.60
2022-09-12T03:36:49.102Z,11.50
2022-09-12T03:39:18.385Z,11.50
2022-09-12T03:41:46.794Z,11.40
2022-09-12T03:44:15.169Z,11.40
2022-09-12T03:46:45.177Z,11.40
2022-09-12T03:49:13.807Z,11.40
2022-09-12T03:51:44.310Z,11.30
2022-09-12T03:54:14.275Z,11.30
2022-09-12T03:56:42.763Z,11.30
2022-09-12T03:59:11.277Z,11.30
2022-09-12T04:01:45.435Z,11.30
2022-09-12T04:04:13.986Z,11.30
2022-09-12T04:06:42.962Z,11.30
2022-09-12T04:09:11.237Z,11.20
2022-09-12T04:11:41.271Z,11.20
2022-09-12T04:14:09.864Z,11.20
2022-09-12T04:16:38.113Z,11.20
2022-09-12T04:19:06.697Z,11.20
2022-09-12T04:21:36.414Z,11.20
2022-09-12T04:24:04.919Z,11.10
2022-09-12T04:26:33.360Z,11.10
2022-09-12T04:29:03.317Z,11.10
2022-09-12T04:31:31.671Z,11.10
2022-09-12T04:34:02.405Z,11.10
2022-09-12T04:36:31.217Z,11.10
2022-09-12T04:39:01.510Z,11.10
2022-09-12T04:41:32.307Z,11.10
2022-09-12T04:44:04.757Z,11.10
2022-09-12T04:46:35.553Z,11.10
2022-09-12T04:49:04.745Z,11.10
2022-09-12T04:51:36.106Z,11.10
2022-09-12T04:54:06.101Z,11.20
2022-09-12T04:56:37.860Z,11.20
2022-09-12T04:59:16.221Z,11.20
2022-09-12T05:01:44.752Z,11.20
2022-09-12T05:04:14.388Z,11.20
2022-09-12T05:06:44.448Z,11.20
2022-09-12T05:09:15.409Z,11.30
2022-09-12T05:14:36.736Z,11.40
2022-09-12T05:17:06.328Z,11.40
2022-09-12T05:19:34.924Z,11.50
2022-09-12T05:22:05.062Z,11.50
2022-09-12T05:24:33.928Z,10.40
2022-09-12T05:27:03.560Z,11.60
2022-09-12T05:29:31.946Z,11.60
2022-09-12T05:32:01.786Z,11.60
2022-09-12T05:34:30.390Z,11.70
2022-09-12T05:36:58.752Z,11.70
2022-09-12T05:39:27.258Z,11.70
2022-09-12T05:41:56.054Z,11.80
2022-09-12T05:44:25.041Z,11.80
2022-09-12T05:46:53.796Z,11.90
2022-09-12T05:49:23.563Z,12.00
2022-09-12T05:51:52.354Z,13.40
2022-09-12T05:54:22.994Z,13.30
2022-09-12T05:56:51.500Z,15.20
2022-09-12T05:59:24.366Z,17.10
2022-09-12T06:01:52.820Z,18.40
2022-09-12T06:04:23.852Z,20.10
2022-09-12T06:06:52.152Z,21.30
2022-09-12T06:09:20.902Z,22.40
2022-09-12T06:11:49.325Z,23.70
2022-09-12T06:14:19.572Z,24.80
2022-09-12T06:16:48.780Z,25.80
2022-09-12T06:19:18.601Z,26.10
2022-09-12T06:21:49.830Z,27.10
2022-09-12T06:24:19.014Z,28.00
2022-09-12T06:26:47.745Z,28.00
2022-09-12T06:29:16.594Z,28.10
2022-09-12T06:31:45.923Z,28.50
2022-09-12T06:34:16.241Z,29.40
2022-09-12T06:36:48.011Z,29.80
2022-09-12T06:39:18.214Z,30.20
2022-09-12T06:41:47.402Z,30.60
2022-09-12T06:44:19.444Z,30.40
2022-09-12T06:46:48.176Z,30.60
2022-09-12T06:49:18.054Z,31.10
2022-09-12T06:51:48.525Z,30.60
2022-09-12T06:54:18.255Z,31.30
2022-09-12T06:56:46.731Z,31.50
2022-09-12T06:59:15.675Z,31.80
2022-09-12T07:01:44.661Z,31.90
2022-09-12T07:04:13.231Z,32.50
2022-09-12T07:06:44.709Z,31.80
2022-09-12T07:09:17.546Z,31.80
2022-09-12T07:11:47.041Z,29.00
2022-09-12T07:14:16.199Z,27.50
2022-09-12T07:16:44.984Z,28.40
2022-09-12T07:19:14.746Z,28.10
2022-09-12T07:21:43.222Z,28.20
2022-09-12T07:24:13.219Z,29.00
2022-09-12T07:26:42.740Z,28.70
2022-09-12T07:29:36.071Z,28.70
2022-09-12T07:32:05.969Z,28.20
2022-09-12T07:34:34.789Z,28.40
2022-09-12T07:37:03.070Z,28.40
2022-09-12T07:39:32.893Z,29.20
2022-09-12T07:42:02.806Z,30.10
2022-09-12T07:44:31.256Z,30.50
2022-09-12T07:46:59.673Z,30.50
2022-09-12T07:49:28.112Z,29.80
2022-09-12T07:51:56.571Z,29.30
2022-09-12T07:54:24.951Z,28.30
2022-09-12T07:56:57.559Z,26.80
2022-09-12T07:59:50.990Z,24.80
2022-09-12T08:02:17.545Z,23.20
2022-09-12T08:04:46.929Z,22.50
2022-09-12T08:07:15.628Z,21.80
2022-09-12T08:09:43.975Z,21.50
2022-09-12T08:12:13.915Z,21.30
2022-09-12T08:14:42.375Z,21.10
2022-09-12T08:17:11.696Z,20.60
2022-09-12T08:19:40.115Z,20.30
2022-09-12T08:22:08.550Z,20.20
2022-09-12T08:24:36.938Z,20.10
2022-09-12T08:27:05.336Z,20.10
2022-09-12T08:29:35.248Z,20.00
2022-09-12T08:32:04.870Z,19.90
2022-09-12T08:34:33.234Z,19.90
2022-09-12T08:37:01.775Z,19.50
2022-09-12T08:39:30.200Z,19.30
2022-09-12T08:42:03.286Z,19.10
2022-09-12T08:45:06.554Z,18.80
2022-09-12T08:47:38.950Z,18.90
2022-09-12T08:50:18.018Z,19.10
2022-09-12T08:52:56.134Z,19.20
2022-09-12T08:55:36.204Z,19.30
2022-09-12T08:58:14.656Z,19.40
2022-09-12T09:00:50.656Z,19.30
2022-09-12T09:03:40.717Z,19.00
2022-09-12T09:06:21.391Z,19.10
2022-09-12T09:08:58.935Z,19.10
2022-09-12T09:11:48.345Z,19.10
2022-09-12T09:14:46.043Z,19.00
2022-09-12T09:17:25.402Z,18.90
2022-09-12T09:20:03.356Z,19.00
2022-09-12T09:22:42.870Z,19.10
2022-09-12T09:25:22.551Z,19.20
2022-09-12T09:27:57.984Z,19.20
2022-09-12T09:30:26.343Z,19.10
2022-09-12T09:33:01.044Z,19.40
2022-09-12T09:35:40.314Z,19.70
2022-09-12T09:38:24.925Z,19.90
2022-09-12T09:41:12.494Z,20.00
2022-09-12T09:43:41.134Z,19.90
2022-09-12T09:46:10.582Z,19.80
2022-09-12T09:48:45.000Z,19.70
2022-09-12T09:51:15.035Z,19.80
2022-09-12T09:53:49.594Z,19.90
2022-09-12T09:56:29.763Z,20.10
2022-09-12T09:58:58.431Z,20.30
2022-09-12T10:01:33.539Z,20.40
2022-09-12T10:04:04.536Z,20.40
2022-09-12T10:06:34.831Z,20.30
2022-09-12T10:09:18.845Z,20.10
2022-09-12T10:11:47.497Z,19.90
2022-09-12T10:14:31.653Z,19.80
2022-09-12T10:17:00.263Z,19.60
2022-09-12T10:19:37.843Z,19.50
2022-09-12T10:22:08.574Z,19.50
2022-09-12T10:24:41.355Z,19.40
2022-09-12T10:27:16.603Z,19.40
2022-09-12T10:29:48.646Z,19.50
2022-09-12T10:32:30.857Z,19.60
2022-09-12T10:35:03.773Z,19.80
2022-09-12T10:37:34.855Z,20.00
2022-09-12T10:40:08.098Z,20.30
2022-09-12T10:42:51.401Z,20.60
2022-09-12T10:45:26.495Z,20.70
2022-09-12T10:48:03.083Z,20.90
2022-09-12T10:50:38.314Z,21.20
2022-09-12T10:53:20.397Z,21.40
2022-09-12T10:56:06.982Z,21.60
2022-09-12T10:58:53.886Z,21.50
2022-09-12T11:01:36.569Z,21.40
2022-09-12T11:04:25.913Z,21.40
2022-09-12T11:07:19.253Z,21.50
2022-09-12T11:09:57.215Z,21.40
2022-09-12T11:12:33.315Z,21.30
2022-09-12T11:15:15.512Z,21.20
2022-09-12T11:17:53.097Z,21.00
2022-09-12T11:20:43.741Z,20.90
2022-09-12T11:23:57.362Z,20.80
2022-09-12T11:26:43.611Z,20.90
2022-09-12T11:29:22.397Z,21.00
2022-09-12T11:32:12.181Z,20.70
2022-09-12T11:34:53.382Z,20.60
2022-09-12T11:37:47.578Z,20.90
2022-09-12T11:40:29.187Z,20.90
2022-09-12T11:43:02.770Z,21.10
2022-09-12T11:45:37.270Z,21.10
2022-09-12T11:48:11.429Z,20.90
2022-09-12T11:50:39.972Z,20.60
2022-09-12T11:53:17.784Z,21.60
2022-09-12T11:55:56.660Z,20.70
2022-09-12T11:58:29.364Z,20.70
2022-09-12T12:01:04.443Z,20.70
2022-09-12T12:03:40.833Z,20.90
2022-09-12T12:06:19.201Z,20.90
2022-09-12T12:08:50.830Z,21.00
2022-09-12T12:11:32.332Z,21.00
2022-09-12T12:14:05.191Z,21.10
2022-09-12T12:16:35.589Z,21.00
2022-09-12T12:19:25.830Z,20.90
2022-09-12T12:21:54.471Z,21.00
2022-09-12T12:24:25.144Z,21.10
2022-09-12T12:27:00.989Z,21.30
2022-09-12T12:29:44.162Z,21.40
2022-09-12T12:32:33.663Z,21.50
2022-09-12T12:35:39.887Z,21.60
2022-09-12T12:38:28.842Z,21.50
2022-09-12T12:41:45.502Z,21.30
2022-09-12T12:45:05.331Z,21.20
2022-09-12T12:47:42.230Z,21.10
2022-09-12T12:50:23.997Z,21.30
2022-09-12T12:52:55.603Z,21.40
2022-09-12T12:55:28.104Z,21.40
2022-09-12T12:57:58.205Z,21.40
2022-09-12T13:00:33.951Z,21.50
2022-09-12T13:03:11.926Z,21.60
2022-09-12T13:05:43.026Z,21.60
2022-09-12T13:08:26.670Z,21.50
2022-09-12T13:10:59.351Z,21.40
2022-09-12T13:13:33.438Z,21.50
2022-09-12T13:16:02.172Z,21.50
2022-09-12T13:18:42.978Z,21.30
2022-09-12T13:21:14.689Z,21.40
2022-09-12T13:23:43.581Z,21.60
2022-09-12T13:26:14.501Z,21.60
2022-09-12T13:28:43.149Z,21.70
2022-09-12T13:31:24.516Z,21.70
2022-09-12T13:33:59.210Z,21.80
2022-09-12T13:36:55.881Z,21.90
2022-09-12T13:39:28.343Z,21.90
2022-09-12T13:42:24.870Z,21.90
2022-09-12T13:44:57.869Z,21.90
2022-09-12T13:47:30.783Z,21.90
2022-09-12T13:50:01.750Z,21.90
2022-09-12T13:52:33.507Z,22.00
2022-09-12T13:55:06.570Z,22.00
2022-09-12T13:57:37.765Z,22.10
2022-09-12T14:00:18.383Z,22.20
2022-09-12T14:02:48.649Z,22.30
2022-09-12T14:05:23.028Z,22.00
2022-09-12T14:07:56.731Z,23.00
2022-09-12T14:10:33.289Z,21.90
2022-09-12T14:13:12.242Z,22.50
2022-09-12T14:15:41.518Z,21.80
2022-09-12T14:18:24.718Z,21.90
2022-09-12T14:20:57.434Z,22.00
2022-09-12T14:23:32.458Z,21.90
2022-09-12T14:26:06.811Z,21.80
2022-09-12T14:28:37.749Z,21.60
2022-09-12T14:31:08.415Z,21.60
2022-09-12T14:33:49.583Z,21.30
2022-09-12T14:36:24.969Z,21.30
2022-09-12T14:38:56.925Z,20.30
2022-09-12T14:41:30.171Z,21.20
2022-09-12T14:44:01.862Z,21.30
2022-09-12T14:46:34.556Z,21.30
2022-09-12T14:49:09.414Z,21.30
2022-09-12T14:51:41.322Z,21.20
2022-09-12T14:54:37.591Z,21.20
2022-09-12T14:57:31.509Z,21.30
2022-09-12T15:00:21.072Z,21.30
2022-09-12T15:02:52.344Z,21.30
2022-09-12T15:05:24.731Z,21.20
2022-09-12T15:07:59.085Z,21.20
2022-09-12T15:10:31.635Z,21.20
2022-09-12T15:13:16.210Z,21.20
2022-09-12T15:15:47.167Z,21.10
2022-09-12T15:18:16.522Z,21.20
2022-09-12T15:20:46.247Z,21.10
2022-09-12T15:23:22.014Z,21.10
2022-09-12T15:25:51.035Z,21.10
2022-09-12T15:28:23.948Z,21.00
2022-09-12T15:30:54.777Z,20.90
2022-09-12T15:33:25.556Z,20.90
2022-09-12T15:35:54.406Z,20.90
2022-09-12T15:38:26.576Z,20.90
2022-09-12T15:40:56.047Z,20.80
2022-09-12T15:43:26.633Z,20.80
2022-09-12T15:45:55.514Z,20.80
2022-09-12T15:48:24.089Z,20.70
2022-09-12T15:50:53.123Z,20.60
2022-09-12T15:53:21.525Z,20.50
2022-09-12T15:55:51.457Z,20.50
2022-09-12T15:58:21.146Z,20.40
2022-09-12T16:00:49.540Z,20.30
2022-09-12T16:03:24.067Z,20.30
2022-09-12T16:05:57.401Z,20.20
2022-09-12T16:08:26.512Z,20.20
2022-09-12T16:10:58.323Z,20.10
2022-09-12T16:13:28.013Z,20.10
2022-09-12T16:15:58.516Z,20.00
2022-09-12T16:18:28.135Z,20.00
2022-09-12T16:20:57.212Z,19.90
2022-09-12T16:23:25.922Z,19.90
2022-09-12T16:26:03.119Z,19.80
2022-09-12T16:28:34.691Z,19.80
2022-09-12T16:31:08.559Z,19.70
2022-09-12T16:33:38.295Z,19.70
2022-09-12T16:36:12.059Z,19.60
2022-09-12T16:38:43.081Z,19.50
2022-09-12T16:41:14.522Z,19.50
2022-09-12T16:43:44.571Z,19.40
2022-09-12T16:46:16.285Z,19.40
2022-09-12T16:48:51.542Z,19.30
2022-09-12T16:51:23.733Z,19.20
2022-09-12T16:53:55.003Z,19.20
2022-09-12T16:56:26.762Z,19.10
2022-09-12T16:58:55.900Z,19.00
2022-09-12T17:01:26.674Z,19.00
2022-09-12T17:03:56.805Z,18.90
2022-09-12T17:06:26.922Z,18.80
2022-09-12T17:09:01.263Z,18.80
2022-09-12T17:11:36.512Z,18.70
2022-09-12T17:14:07.319Z,18.60
2022-09-12T17:16:38.305Z,18.50
2022-09-12T17:19:08.152Z,18.40
2022-09-12T17:21:37.127Z,18.40
2022-09-12T17:24:06.043Z,18.30
2022-09-12T17:26:38.486Z,18.20
2022-09-12T17:29:06.969Z,18.10
2022-09-12T17:31:38.084Z,18.10
2022-09-12T17:34:06.518Z,18.00
2022-09-12T17:36:44.564Z,17.90
2022-09-12T17:39:14.760Z,17.90
2022-09-12T17:41:46.325Z,17.80
2022-09-12T17:44:16.232Z,17.70
2022-09-12T17:46:45.864Z,17.70
2022-09-12T17:49:18.678Z,17.60
2022-09-12T17:51:49.046Z,17.50
2022-09-12T17:54:21.023Z,17.50
2022-09-12T17:56:51.969Z,16.60
2022-09-12T17:59:24.439Z,17.30
2022-09-12T18:02:11.282Z,17.30
2022-09-12T18:04:40.841Z,17.20
2022-09-12T18:07:12.134Z,17.20
2022-09-12T18:09:42.101Z,17.10
2022-09-12T18:12:12.699Z,17.10
2022-09-12T18:14:43.408Z,17.00
2022-09-12T18:17:14.523Z,17.00
2022-09-12T18:19:43.679Z,16.90
2022-09-12T18:22:12.212Z,16.90
2022-09-12T18:24:45.086Z,16.90
2022-09-12T18:27:14.782Z,16.90
2022-09-12T18:29:43.124Z,16.90
2022-09-12T18:32:11.913Z,16.80
2022-09-12T18:34:40.409Z,16.80
2022-09-12T18:37:08.762Z,16.80
2022-09-12T18:39:38.485Z,16.80
2022-09-12T18:42:07.376Z,16.70
2022-09-12T18:44:37.653Z,16.70
2022-09-12T18:47:06.545Z,16.70
2022-09-12T18:49:35.950Z,16.60
2022-09-12T18:52:04.613Z,16.60
2022-09-12T18:54:33.561Z,16.60
2022-09-12T18:57:04.812Z,16.60
2022-09-12T18:59:33.484Z,16.60
2022-09-12T19:02:03.413Z,16.50
2022-09-12T19:04:32.101Z,16.40
2022-09-12T19:07:01.638Z,16.40
2022-09-12T19:09:30.114Z,16.30
2022-09-12T19:11:59.285Z,16.20
2022-09-12T19:14:28.123Z,16.20
2022-09-12T19:16:56.544Z,16.10
2022-09-12T19:19:26.562Z,16.00
2022-09-12T19:21:55.296Z,15.90
2022-09-12T19:24:25.330Z,15.90
2022-09-12T19:26:54.507Z,15.80
2022-09-12T19:29:23.304Z,15.80
2022-09-12T19:31:52.288Z,15.70
2022-09-12T19:34:20.664Z,15.70
2022-09-12T19:36:50.511Z,15.70
2022-09-12T19:39:20.492Z,15.60
2022-09-12T19:41:49.371Z,15.60
2022-09-12T19:44:19.327Z,15.50
2022-09-12T19:46:47.867Z,15.50
2022-09-12T19:49:16.310Z,15.50
2022-09-12T19:51:44.972Z,15.40
2022-09-12T19:54:17.136Z,15.40
2022-09-12T19:56:49.598Z,15.30
2022-09-12T19:59:18.030Z,13.80
2022-09-12T20:01:46.918Z,15.30
2022-09-12T20:04:15.695Z,15.20
2022-09-12T20:06:44.395Z,15.20
2022-09-12T20:09:14.374Z,15.20
2022-09-12T20:11:42.839Z,15.20
2022-09-12T20:14:14.258Z,15.10
2022-09-12T20:16:43.347Z,15.10
2022-09-12T20:19:18.879Z,15.10
2022-09-12T20:21:47.479Z,15.00
2022-09-12T20:24:23.404Z,15.00
2022-09-12T20:26:51.730Z,14.90
2022-09-12T20:29:26.278Z,14.90
2022-09-12T20:31:54.835Z,14.80
2022-09-12T20:34:29.599Z,14.80
2022-09-12T20:36:58.482Z,14.80
2022-09-12T20:39:30.724Z,14.80
2022-09-12T20:41:59.023Z,14.70
2022-09-12T20:44:30.356Z,14.70
2022-09-12T20:46:59.823Z,14.70
2022-09-12T20:49:34.251Z,14.70
2022-09-12T20:52:05.239Z,14.70
2022-09-12T20:54:35.134Z,14.70
2022-09-12T20:57:03.697Z,14.60
2022-09-12T20:59:35.243Z,14.60
2022-09-12T21:02:03.581Z,14.60
2022-09-12T21:04:32.058Z,14.60
2022-09-12T21:07:00.801Z,14.50
2022-09-12T21:09:29.118Z,14.50
2022-09-12T21:11:58.967Z,14.50
2022-09-12T21:14:27.489Z,14.40
2022-09-12T21:16:55.958Z,14.40
2022-09-12T21:19:26.470Z,14.40
2022-09-12T21:21:54.943Z,13.40
2022-09-12T21:24:24.904Z,14.30
2022-09-12T21:26:53.512Z,14.30
2022-09-12T21:29:27.245Z,14.30
2022-09-12T21:31:56.130Z,14.30
2022-09-12T21:34:24.946Z,14.20
2022-09-12T21:36:54.854Z,14.20
2022-09-12T21:39:23.211Z,14.20
2022-09-12T21:41:51.595Z,14.20
2022-09-12T21:44:20.799Z,14.10
2022-09-12T21:46:51.158Z,14.10
2022-09-12T21:49:22.565Z,14.10
2022-09-12T21:51:52.696Z,14.10
2022-09-12T21:54:21.555Z,14.10
2022-09-12T21:56:50.189Z,14.10
2022-09-12T21:59:20.160Z,14.10
2022-09-12T22:01:49.260Z,14.10
2022-09-12T22:04:19.181Z,14.00
2022-09-12T22:06:47.908Z,14.00
2022-09-12T22:09:17.260Z,14.00
2022-09-12T22:11:47.290Z,14.00
2022-09-12T22:14:15.883Z,13.90
2022-09-12T22:16:45.113Z,13.90
2022-09-12T22:19:15.305Z,13.90
2022-09-12T22:22:06.313Z,13.90
2022-09-12T22:24:33.698Z,13.80
2022-09-12T22:27:05.167Z,13.80
2022-09-12T22:29:33.795Z,13.80
2022-09-12T22:32:02.521Z,13.70
2022-09-12T22:34:31.823Z,13.70
2022-09-12T22:37:01.619Z,13.70
2022-09-12T22:39:30.046Z,13.70
2022-09-12T22:41:59.178Z,13.70
2022-09-12T22:44:29.621Z,13.60
2022-09-12T22:46:58.206Z,13.60
2022-09-12T22:49:27.600Z,13.60
2022-09-12T22:51:56.180Z,13.60
2022-09-12T22:54:26.673Z,13.50
2022-09-12T22:56:55.506Z,13.50
2022-09-12T22:59:24.231Z,13.50
2022-09-12T23:01:52.774Z,13.50
2022-09-12T23:04:21.261Z,13.40
2022-09-12T23:06:50.182Z,13.50
2022-09-12T23:09:18.942Z,13.40
2022-09-12T23:11:49.526Z,13.40
2022-09-12T23:14:18.093Z,13.40
2022-09-12T23:16:47.148Z,13.40
2022-09-12T23:19:15.712Z,13.40
2022-09-12T23:21:44.153Z,13.40
2022-09-12T23:24:13.606Z,13.40
2022-09-12T23:26:42.385Z,13.40
2022-09-12T23:29:12.571Z,13.40
2022-09-12T23:31:42.141Z,13.40
2022-09-12T23:34:11.159Z,13.40
2022-09-12T23:36:41.234Z,13.40
2022-09-12T23:39:11.204Z,13.40
2022-09-12T23:41:40.842Z,13.30
2022-09-12T23:44:09.773Z,13.40
2022-09-12T23:46:39.664Z,13.30
2022-09-12T23:49:09.126Z,13.40
2022-09-12T23:51:37.670Z,13.30
2022-09-12T23:54:06.324Z,13.40
2022-09-12T23:56:34.883Z,13.40
2022-09-12T23:59:03.644Z,13.40
